Maldives Meteorological Service

SYNOP

Station Code SYNOP
43555
AAXX 21184 43555 12465 73211 10300 20246 30080 40082 60001 82252 333 59014 82818 86077=
43533
AAXX 21184 43533 12462 53206 10296 20252 30085 40087 60001 82202 333 59009 82818 85077 =
43577
AAXX 21184 43577 12465 72709 10296 20254 30085 40087 60001 82238 333 59010 82818 87276=
43588
AAXX 21184 43588 11460 72910 10295 20263 30086 40087 69991 71386 8397/ 333 59007 82817 81918 87362=
43599
AAXX 21184 43599 11457 82913 10268 20248 30094 40096 60041 76166 8492/ 333 58001 83816 81917 88460=
Last Updated : 2019-04-21 23:06:14